createdAt,value
2018-06-20T00:00:00.689Z,938.65
2018-06-20T00:01:00.440Z,938.67
2018-06-20T00:02:00.381Z,938.68
2018-06-20T00:03:00.332Z,938.65
2018-06-20T00:04:00.288Z,938.64
2018-06-20T00:05:00.254Z,938.66
2018-06-20T00:06:00.204Z,938.65
2018-06-20T00:07:00.359Z,938.67
2018-06-20T00:08:00.321Z,938.65
2018-06-20T00:09:00.059Z,938.66
2018-06-20T00:10:01.209Z,938.68
2018-06-20T00:10:59.984Z,938.67
2018-06-20T00:11:59.930Z,938.73
2018-06-20T00:12:59.872Z,938.71
2018-06-20T00:13:59.829Z,938.76
2018-06-20T00:14:59.791Z,938.72
2018-06-20T00:15:59.740Z,938.76
2018-06-20T00:16:59.685Z,938.75
2018-06-20T00:17:59.662Z,938.76
2018-06-20T00:18:59.803Z,938.77
2018-06-20T00:19:59.572Z,938.75
2018-06-20T00:20:59.525Z,938.77
2018-06-20T00:21:59.665Z,938.77
2018-06-20T00:22:59.618Z,938.75
2018-06-20T00:23:59.378Z,938.76
2018-06-20T00:24:59.540Z,938.75
2018-06-20T00:25:59.293Z,938.76
2018-06-20T00:26:59.249Z,938.77
2018-06-20T00:27:59.205Z,938.76
2018-06-20T00:28:59.354Z,938.79
2018-06-20T00:29:59.097Z,938.76
2018-06-20T00:30:59.063Z,938.79
2018-06-20T00:31:59.005Z,938.79
2018-06-20T00:32:58.973Z,938.80
2018-06-20T00:33:58.934Z,938.80
2018-06-20T00:34:58.867Z,938.80
2018-06-20T00:35:58.819Z,938.82
2018-06-20T00:36:58.780Z,938.80
2018-06-20T00:37:58.729Z,938.79
2018-06-20T00:38:58.685Z,938.79
2018-06-20T00:39:58.654Z,938.79
2018-06-20T00:40:58.589Z,938.81
2018-06-20T00:41:58.562Z,938.81
2018-06-20T00:42:58.509Z,938.83
2018-06-20T00:43:58.471Z,938.85
2018-06-20T00:44:58.410Z,938.81
2018-06-20T00:45:58.378Z,938.83
2018-06-20T00:46:58.319Z,938.81
2018-06-20T00:47:58.270Z,938.86
2018-06-20T00:48:58.245Z,938.87
2018-06-20T00:49:58.185Z,938.85
2018-06-20T00:50:58.148Z,938.85
2018-06-20T00:51:58.102Z,938.84
2018-06-20T00:52:58.041Z,938.82
2018-06-20T00:53:58.006Z,938.81
2018-06-20T00:54:57.950Z,938.78
2018-06-20T00:55:57.920Z,938.82
2018-06-20T00:56:57.853Z,938.81
2018-06-20T00:57:57.839Z,938.80
2018-06-20T00:58:57.771Z,938.85
2018-06-20T00:59:57.726Z,938.86
2018-06-20T01:00:57.671Z,938.89
2018-06-20T01:01:57.647Z,938.90
2018-06-20T01:02:57.590Z,938.86
2018-06-20T01:03:57.554Z,938.91
2018-06-20T01:04:57.506Z,938.92
2018-06-20T01:05:57.456Z,938.91
2018-06-20T01:06:58.162Z,938.90
2018-06-20T01:07:57.368Z,938.94
2018-06-20T01:08:57.319Z,938.94
2018-06-20T01:09:57.264Z,938.90
2018-06-20T01:10:58.415Z,938.97
2018-06-20T01:11:57.338Z,938.92
2018-06-20T01:12:57.131Z,938.94
2018-06-20T01:13:57.091Z,938.96
2018-06-20T01:14:57.036Z,938.96
2018-06-20T01:15:58.187Z,938.93
2018-06-20T01:16:56.936Z,938.92
2018-06-20T01:17:56.896Z,938.89
2018-06-20T01:18:56.872Z,938.90
2018-06-20T01:19:58.020Z,938.91
2018-06-20T01:20:56.775Z,938.93
2018-06-20T01:21:56.917Z,938.92
2018-06-20T01:22:56.887Z,938.93
2018-06-20T01:23:56.619Z,938.90
2018-06-20T01:24:56.571Z,938.96
2018-06-20T01:25:56.544Z,938.92
2018-06-20T01:26:56.495Z,938.91
2018-06-20T01:27:56.454Z,938.91
2018-06-20T01:28:56.391Z,938.88
2018-06-20T01:29:56.348Z,938.90
2018-06-20T01:30:56.317Z,938.92
2018-06-20T01:31:57.464Z,938.88
2018-06-20T01:32:56.220Z,938.89
2018-06-20T01:33:56.166Z,938.88
2018-06-20T01:34:56.116Z,938.87
2018-06-20T01:35:56.083Z,938.87
2018-06-20T01:36:56.049Z,938.89
2018-06-20T01:37:55.996Z,938.87
2018-06-20T01:38:55.945Z,938.87
2018-06-20T01:39:56.084Z,938.85
2018-06-20T01:40:55.842Z,938.89
2018-06-20T01:41:55.811Z,938.88
2018-06-20T01:42:55.764Z,938.89
2018-06-20T01:43:55.716Z,938.87
2018-06-20T01:44:55.658Z,938.81
2018-06-20T01:45:55.615Z,938.85
2018-06-20T01:46:55.564Z,938.81
2018-06-20T01:47:55.534Z,938.85
2018-06-20T01:48:55.691Z,938.80
2018-06-20T01:49:55.430Z,938.85
2018-06-20T01:50:55.580Z,938.82
2018-06-20T01:51:55.336Z,938.84
2018-06-20T01:52:55.292Z,938.84
2018-06-20T01:53:55.243Z,938.84
2018-06-20T01:54:55.198Z,938.85
2018-06-20T01:55:55.157Z,938.79
2018-06-20T01:56:55.128Z,938.80
2018-06-20T01:57:55.265Z,938.80
2018-06-20T01:58:55.037Z,938.79
2018-06-20T01:59:54.986Z,938.81
2018-06-20T02:00:54.931Z,938.82
2018-06-20T02:01:54.879Z,938.82
2018-06-20T02:02:55.034Z,938.81
2018-06-20T02:03:54.806Z,938.78
2018-06-20T02:04:54.741Z,938.76
2018-06-20T02:05:54.693Z,938.74
2018-06-20T02:06:54.655Z,938.74
2018-06-20T02:07:54.615Z,938.76
2018-06-20T02:08:54.576Z,938.76
2018-06-20T02:09:54.525Z,938.79
2018-06-20T02:10:54.481Z,938.78
2018-06-20T02:11:54.421Z,938.77
2018-06-20T02:12:54.373Z,938.79
2018-06-20T02:13:54.339Z,938.77
2018-06-20T02:14:54.284Z,938.76
2018-06-20T02:15:54.239Z,938.79
2018-06-20T02:16:54.409Z,938.79
2018-06-20T02:17:54.166Z,938.78
2018-06-20T02:18:54.106Z,938.72
2018-06-20T02:19:54.054Z,938.71
2018-06-20T02:20:54.010Z,938.70
2018-06-20T02:21:53.962Z,938.71
2018-06-20T02:22:53.935Z,938.68
2018-06-20T02:23:53.873Z,938.65
2018-06-20T02:24:53.827Z,938.71
2018-06-20T02:25:53.792Z,938.67
2018-06-20T02:26:53.734Z,938.69
2018-06-20T02:27:53.685Z,938.66
2018-06-20T02:28:53.847Z,938.65
2018-06-20T02:29:53.612Z,938.63
2018-06-20T02:30:53.554Z,938.65
2018-06-20T02:31:53.504Z,938.61
2018-06-20T02:32:53.472Z,938.57
2018-06-20T02:33:53.408Z,938.56
2018-06-20T02:34:53.588Z,938.58
2018-06-20T02:35:53.540Z,938.53
2018-06-20T02:36:53.281Z,938.60
2018-06-20T02:37:53.231Z,938.59
2018-06-20T02:38:53.175Z,938.63
2018-06-20T02:39:53.161Z,938.62
2018-06-20T02:40:53.099Z,938.59
2018-06-20T02:41:53.051Z,938.58
2018-06-20T02:42:53.008Z,938.57
2018-06-20T02:43:52.947Z,938.57
2018-06-20T02:44:52.914Z,938.50
2018-06-20T02:45:52.871Z,938.49
2018-06-20T02:46:52.839Z,938.52
2018-06-20T02:47:52.805Z,938.48
2018-06-20T02:48:52.745Z,938.45
2018-06-20T02:49:52.697Z,938.46
2018-06-20T02:50:52.649Z,938.48
2018-06-20T02:51:52.595Z,938.43
2018-06-20T02:52:52.596Z,938.40
2018-06-20T02:53:52.507Z,938.42
2018-06-20T02:54:52.462Z,938.40
2018-06-20T02:55:52.411Z,938.42
2018-06-20T02:56:52.394Z,938.40
2018-06-20T02:57:52.317Z,938.41
2018-06-20T02:58:52.281Z,938.40
2018-06-20T02:59:52.226Z,938.42
2018-06-20T03:00:52.204Z,938.42
2018-06-20T03:01:52.123Z,938.39
2018-06-20T03:02:52.101Z,938.39
2018-06-20T03:03:52.055Z,938.47
2018-06-20T03:04:51.999Z,938.43
2018-06-20T03:05:51.947Z,938.43
2018-06-20T03:06:51.909Z,938.45
2018-06-20T03:07:51.861Z,938.47
2018-06-20T03:08:51.849Z,938.44
2018-06-20T03:09:51.772Z,938.53
2018-06-20T03:10:51.726Z,938.49
2018-06-20T03:11:51.681Z,938.50
2018-06-20T03:12:52.165Z,938.47
2018-06-20T03:13:51.608Z,938.45
2018-06-20T03:14:51.526Z,938.49
2018-06-20T03:15:51.491Z,938.47
2018-06-20T03:16:51.983Z,938.45
2018-06-20T03:17:51.424Z,938.45
2018-06-20T03:18:51.367Z,938.40
2018-06-20T03:19:51.320Z,938.44
2018-06-20T03:20:51.305Z,938.46
2018-06-20T03:21:51.227Z,938.47
2018-06-20T03:22:51.167Z,938.49
2018-06-20T03:23:51.123Z,938.51
2018-06-20T03:24:51.096Z,938.47
2018-06-20T03:25:51.035Z,938.48
2018-06-20T03:26:51.004Z,938.46
2018-06-20T03:27:50.946Z,938.43
2018-06-20T03:28:50.894Z,938.43
2018-06-20T03:29:50.862Z,938.41
2018-06-20T03:30:50.824Z,938.42
2018-06-20T03:31:50.776Z,938.45
2018-06-20T03:32:50.701Z,938.44
2018-06-20T03:33:50.674Z,938.43
2018-06-20T03:34:50.625Z,938.45
2018-06-20T03:35:50.592Z,938.42
2018-06-20T03:36:50.532Z,938.43
2018-06-20T03:37:50.485Z,938.45
2018-06-20T03:38:50.450Z,938.41
2018-06-20T03:39:50.394Z,938.41
2018-06-20T03:40:50.367Z,938.40
2018-06-20T03:41:50.305Z,938.40
2018-06-20T03:42:50.244Z,938.39
2018-06-20T03:43:50.219Z,938.40
2018-06-20T03:44:50.179Z,938.39
2018-06-20T03:45:50.132Z,938.43
2018-06-20T03:46:50.076Z,938.39
2018-06-20T03:47:50.058Z,938.37
2018-06-20T03:48:49.983Z,938.39
2018-06-20T03:49:49.918Z,938.39
2018-06-20T03:50:49.875Z,938.39
2018-06-20T03:51:49.844Z,938.35
2018-06-20T03:52:49.828Z,938.34
2018-06-20T03:53:49.755Z,938.31
2018-06-20T03:54:49.714Z,938.34
2018-06-20T03:55:49.661Z,938.32
2018-06-20T03:56:49.613Z,938.34
2018-06-20T03:57:49.575Z,938.35
2018-06-20T03:58:49.528Z,938.30
2018-06-20T03:59:49.471Z,938.31
2018-06-20T04:00:49.445Z,938.32
2018-06-20T04:01:49.384Z,938.33
2018-06-20T04:02:49.324Z,938.34
2018-06-20T04:03:49.285Z,938.29
2018-06-20T04:04:49.243Z,938.30
2018-06-20T04:05:49.189Z,938.33
2018-06-20T04:06:49.174Z,938.29
2018-06-20T04:07:49.133Z,938.27
2018-06-20T04:08:49.087Z,938.25
2018-06-20T04:09:49.022Z,938.30
2018-06-20T04:10:48.990Z,938.23
2018-06-20T04:11:48.920Z,938.22
2018-06-20T04:12:49.483Z,938.16
2018-06-20T04:13:48.846Z,938.17
2018-06-20T04:14:48.798Z,938.14
2018-06-20T04:15:48.772Z,938.10
2018-06-20T04:16:48.691Z,938.09
2018-06-20T04:17:48.642Z,938.04
2018-06-20T04:18:48.645Z,938.11
2018-06-20T04:19:48.553Z,938.10
2018-06-20T04:20:48.519Z,938.12
2018-06-20T04:21:48.469Z,938.14
2018-06-20T04:22:48.442Z,938.15
2018-06-20T04:23:48.372Z,938.13
2018-06-20T04:24:48.335Z,938.09
2018-06-20T04:25:48.274Z,938.11
2018-06-20T04:26:48.236Z,938.12
2018-06-20T04:27:48.193Z,938.11
2018-06-20T04:28:48.129Z,938.07
2018-06-20T04:29:48.087Z,938.05
2018-06-20T04:30:48.073Z,938.03
2018-06-20T04:31:47.984Z,938.03
2018-06-20T04:32:47.947Z,938.04
2018-06-20T04:33:47.931Z,938.05
2018-06-20T04:34:48.010Z,938.04
2018-06-20T04:35:47.813Z,938.03
2018-06-20T04:36:47.761Z,938.03
2018-06-20T04:37:47.725Z,938.02
2018-06-20T04:38:47.680Z,938.03
2018-06-20T04:39:47.632Z,938.03
2018-06-20T04:40:47.580Z,938.04
2018-06-20T04:41:47.582Z,938.03
2018-06-20T04:42:47.510Z,937.99
2018-06-20T04:43:48.001Z,938.01
2018-06-20T04:44:47.428Z,938.01
2018-06-20T04:45:47.339Z,938.01
2018-06-20T04:46:47.308Z,937.97
2018-06-20T04:47:47.259Z,938.01
2018-06-20T04:48:47.243Z,937.94
2018-06-20T04:49:47.182Z,937.91
2018-06-20T04:50:47.121Z,937.96
2018-06-20T04:51:47.077Z,937.90
2018-06-20T04:52:47.031Z,937.89
2018-06-20T04:53:47.144Z,937.91
2018-06-20T04:54:46.927Z,937.90
2018-06-20T04:55:46.893Z,937.89
2018-06-20T04:56:46.884Z,937.88
2018-06-20T04:57:46.809Z,937.86
2018-06-20T04:58:46.774Z,937.89
2018-06-20T04:59:46.699Z,937.88
2018-06-20T05:00:46.645Z,937.85
2018-06-20T05:01:46.600Z,937.82
2018-06-20T05:02:46.596Z,937.82
2018-06-20T05:03:46.505Z,937.80
2018-06-20T05:04:46.461Z,937.78
2018-06-20T05:05:46.445Z,937.80
2018-06-20T05:06:46.393Z,937.83
2018-06-20T05:07:46.911Z,937.79
2018-06-20T05:08:46.292Z,937.79
2018-06-20T05:09:46.228Z,937.75
2018-06-20T05:10:46.210Z,937.82
2018-06-20T05:11:46.147Z,937.79
2018-06-20T05:12:46.112Z,937.79
2018-06-20T05:13:46.066Z,937.81
2018-06-20T05:14:46.000Z,937.77
2018-06-20T05:15:45.977Z,937.76
2018-06-20T05:16:45.934Z,937.72
2018-06-20T05:17:45.863Z,937.72
2018-06-20T05:18:45.844Z,937.76
2018-06-20T05:19:45.788Z,937.71
2018-06-20T05:20:45.751Z,937.75
2018-06-20T05:21:45.720Z,937.71
2018-06-20T05:22:45.645Z,937.72
2018-06-20T05:23:45.634Z,937.71
2018-06-20T05:24:45.565Z,937.70
2018-06-20T05:25:45.525Z,937.73
2018-06-20T05:26:45.470Z,937.70
2018-06-20T05:27:45.411Z,937.72
2018-06-20T05:28:45.393Z,937.67
2018-06-20T05:29:45.328Z,937.72
2018-06-20T05:30:45.258Z,937.69
2018-06-20T05:31:45.245Z,937.70
2018-06-20T05:32:45.199Z,937.69
2018-06-20T05:33:45.136Z,937.64
2018-06-20T05:34:45.103Z,937.66
2018-06-20T05:35:45.043Z,937.64
2018-06-20T05:36:45.020Z,937.64
2018-06-20T05:37:44.960Z,937.66
2018-06-20T05:38:44.917Z,937.61
2018-06-20T05:39:44.874Z,937.65
2018-06-20T05:40:44.821Z,937.63
2018-06-20T05:41:45.283Z,937.61
2018-06-20T05:42:44.714Z,937.58
2018-06-20T05:43:44.670Z,937.57
2018-06-20T05:44:44.618Z,937.58
2018-06-20T05:45:44.590Z,937.57
2018-06-20T05:46:44.515Z,937.59
2018-06-20T05:47:44.516Z,937.59
2018-06-20T05:48:44.472Z,937.66
2018-06-20T05:49:44.387Z,937.61
2018-06-20T05:50:44.339Z,937.60
2018-06-20T05:51:44.313Z,937.58
2018-06-20T05:52:44.250Z,937.65
2018-06-20T05:53:44.215Z,937.66
2018-06-20T05:54:44.152Z,937.61
2018-06-20T05:55:44.099Z,937.67
2018-06-20T05:56:44.066Z,937.68
2018-06-20T05:57:44.004Z,937.68
2018-06-20T05:58:43.976Z,937.67
2018-06-20T05:59:43.939Z,937.68
2018-06-20T06:00:43.881Z,937.70
2018-06-20T06:01:43.844Z,937.71
2018-06-20T06:02:43.798Z,937.67
2018-06-20T06:03:43.755Z,937.69
2018-06-20T06:04:43.693Z,937.71
2018-06-20T06:05:43.657Z,937.63
2018-06-20T06:06:43.615Z,937.67
2018-06-20T06:07:43.582Z,937.66
2018-06-20T06:08:43.517Z,937.68
2018-06-20T06:09:43.490Z,937.69
2018-06-20T06:10:43.444Z,937.68
2018-06-20T06:11:43.382Z,937.69
2018-06-20T06:12:43.337Z,937.72
2018-06-20T06:13:43.285Z,937.72
2018-06-20T06:14:43.226Z,937.71
2018-06-20T06:15:43.195Z,937.69
2018-06-20T06:16:43.223Z,937.67
2018-06-20T06:17:43.098Z,937.67
2018-06-20T06:18:43.029Z,937.61
2018-06-20T06:19:42.984Z,937.66
2018-06-20T06:20:42.952Z,937.66
2018-06-20T06:21:42.919Z,937.63
2018-06-20T06:22:42.856Z,937.64
2018-06-20T06:23:42.828Z,937.65
2018-06-20T06:24:42.757Z,937.64
2018-06-20T06:25:42.714Z,937.60
2018-06-20T06:26:42.656Z,937.63
2018-06-20T06:27:42.610Z,937.64
2018-06-20T06:28:42.563Z,937.66
2018-06-20T06:29:42.541Z,937.64
2018-06-20T06:30:42.585Z,937.62
2018-06-20T06:31:42.442Z,937.63
2018-06-20T06:32:42.392Z,937.60
2018-06-20T06:33:42.343Z,937.64
2018-06-20T06:34:42.300Z,937.61
2018-06-20T06:35:42.249Z,937.58
2018-06-20T06:36:42.215Z,937.60
2018-06-20T06:37:42.202Z,937.63
2018-06-20T06:38:42.130Z,937.62
2018-06-20T06:39:42.055Z,937.64
2018-06-20T06:40:42.021Z,937.65
2018-06-20T06:41:41.993Z,937.64
2018-06-20T06:42:41.925Z,937.65
2018-06-20T06:43:41.875Z,937.63
2018-06-20T06:44:41.832Z,937.65
2018-06-20T06:45:41.791Z,937.66
2018-06-20T06:46:41.758Z,937.63
2018-06-20T06:47:41.684Z,937.66
2018-06-20T06:48:41.658Z,937.63
2018-06-20T06:49:41.596Z,937.59
2018-06-20T06:50:41.559Z,937.61
2018-06-20T06:51:41.511Z,937.59
2018-06-20T06:52:41.492Z,937.59
2018-06-20T06:53:41.400Z,937.62
2018-06-20T06:54:41.386Z,937.61
2018-06-20T06:55:41.337Z,937.60
2018-06-20T06:56:41.285Z,937.64
2018-06-20T06:57:41.217Z,937.63
2018-06-20T06:58:41.199Z,937.61
2018-06-20T06:59:41.147Z,937.63
2018-06-20T07:00:41.094Z,937.60
2018-06-20T07:01:41.047Z,937.60
2018-06-20T07:02:41.038Z,937.59
2018-06-20T07:03:40.940Z,937.59
2018-06-20T07:04:40.924Z,937.61
2018-06-20T07:05:40.844Z,937.61
2018-06-20T07:06:40.831Z,937.59
2018-06-20T07:07:40.763Z,937.60
2018-06-20T07:08:40.724Z,937.63
2018-06-20T07:09:40.677Z,937.62
2018-06-20T07:10:40.623Z,937.63
2018-06-20T07:11:40.588Z,937.65
2018-06-20T07:12:40.524Z,937.68
2018-06-20T07:13:40.513Z,937.66
2018-06-20T07:14:40.453Z,937.66
2018-06-20T07:15:40.400Z,937.68
2018-06-20T07:16:40.353Z,937.71
2018-06-20T07:17:40.303Z,937.68
2018-06-20T07:18:40.285Z,937.70
2018-06-20T07:19:40.238Z,937.69
2018-06-20T07:20:40.153Z,937.67
2018-06-20T07:21:40.151Z,937.67
2018-06-20T07:22:40.060Z,937.67
2018-06-20T07:23:40.038Z,937.67
2018-06-20T07:24:39.990Z,937.66
2018-06-20T07:25:39.931Z,937.64
2018-06-20T07:26:39.876Z,937.68
2018-06-20T07:27:39.842Z,937.66
2018-06-20T07:28:39.796Z,937.63
2018-06-20T07:29:39.736Z,937.67
2018-06-20T07:30:39.735Z,937.66
2018-06-20T07:31:39.656Z,937.70
2018-06-20T07:32:39.635Z,937.66
2018-06-20T07:33:39.563Z,937.67
2018-06-20T07:34:39.528Z,937.68
2018-06-20T07:35:39.659Z,937.68
2018-06-20T07:36:39.415Z,937.66
2018-06-20T07:37:39.378Z,937.66
2018-06-20T07:38:39.333Z,937.70
2018-06-20T07:39:39.284Z,937.71
2018-06-20T07:40:39.265Z,937.72
2018-06-20T07:41:39.191Z,937.73
2018-06-20T07:42:39.148Z,937.67
2018-06-20T07:43:39.087Z,937.73
2018-06-20T07:44:39.061Z,937.68
2018-06-20T07:45:38.997Z,937.72
2018-06-20T07:46:38.960Z,937.68
2018-06-20T07:47:38.913Z,937.70
2018-06-20T07:48:38.891Z,937.69
2018-06-20T07:49:38.813Z,937.68
2018-06-20T07:50:38.798Z,937.74
2018-06-20T07:51:38.723Z,937.66
2018-06-20T07:52:38.674Z,937.66
2018-06-20T07:53:38.635Z,937.68
2018-06-20T07:54:38.613Z,937.70
2018-06-20T07:55:38.577Z,937.69
2018-06-20T07:56:38.508Z,937.66
2018-06-20T07:57:38.455Z,937.62
2018-06-20T07:58:38.414Z,937.68
2018-06-20T07:59:38.366Z,937.66
2018-06-20T08:00:38.313Z,937.69
2018-06-20T08:01:38.280Z,937.65
2018-06-20T08:02:38.216Z,937.69
2018-06-20T08:03:38.170Z,937.69
2018-06-20T08:04:38.117Z,937.70
2018-06-20T08:05:38.097Z,937.67
2018-06-20T08:06:38.016Z,937.65
2018-06-20T08:07:37.982Z,937.74
2018-06-20T08:08:37.949Z,937.74
2018-06-20T08:09:37.890Z,937.75
2018-06-20T08:10:37.877Z,937.73
2018-06-20T08:11:37.798Z,937.82
2018-06-20T08:12:37.738Z,937.80
2018-06-20T08:13:37.702Z,937.82
2018-06-20T08:14:37.652Z,937.80
2018-06-20T08:15:37.629Z,937.84
2018-06-20T08:16:37.574Z,937.81
2018-06-20T08:17:37.520Z,937.84
2018-06-20T08:18:37.459Z,937.86
2018-06-20T08:19:37.414Z,937.87
2018-06-20T08:20:37.366Z,937.88
2018-06-20T08:21:37.342Z,937.93
2018-06-20T08:22:37.306Z,937.89
2018-06-20T08:23:37.239Z,937.89
2018-06-20T08:24:37.192Z,937.91
2018-06-20T08:25:37.134Z,937.89
2018-06-20T08:26:37.100Z,937.93
2018-06-20T08:27:37.089Z,937.94
2018-06-20T08:28:37.007Z,937.92
2018-06-20T08:29:36.975Z,937.95
2018-06-20T08:30:36.934Z,937.95
2018-06-20T08:31:36.897Z,937.97
2018-06-20T08:32:36.823Z,937.93
2018-06-20T08:33:36.773Z,938.00
2018-06-20T08:34:36.756Z,938.02
2018-06-20T08:35:36.720Z,938.00
2018-06-20T08:36:36.622Z,938.05
2018-06-20T08:37:36.599Z,938.05
2018-06-20T08:38:36.527Z,938.10
2018-06-20T08:39:36.489Z,938.06
2018-06-20T08:40:36.467Z,938.05
2018-06-20T08:41:36.415Z,938.11
2018-06-20T08:42:36.383Z,938.17
2018-06-20T08:43:36.325Z,938.14
2018-06-20T08:44:36.258Z,938.18
2018-06-20T08:45:36.240Z,938.23
2018-06-20T08:46:36.214Z,938.17
2018-06-20T08:47:36.167Z,938.20
2018-06-20T08:48:36.077Z,938.23
2018-06-20T08:49:36.033Z,938.23
2018-06-20T08:50:35.997Z,938.26
2018-06-20T08:51:35.964Z,938.29
2018-06-20T08:52:35.892Z,938.25
2018-06-20T08:53:35.871Z,938.23
2018-06-20T09:01:11.584Z,938.26
2018-06-20T09:02:01.421Z,938.28
2018-06-20T09:02:58.828Z,938.29
2018-06-20T09:03:58.767Z,938.26
2018-06-20T09:04:58.707Z,938.28
2018-06-20T09:05:58.693Z,938.29
2018-06-20T09:06:58.614Z,938.28
2018-06-20T09:07:58.592Z,938.29
2018-06-20T09:08:58.547Z,938.37
2018-06-20T09:09:58.499Z,938.37
2018-06-20T09:10:58.457Z,938.34
2018-06-20T09:11:58.408Z,938.33
2018-06-20T09:12:58.359Z,938.38
2018-06-20T09:13:58.288Z,938.36
2018-06-20T09:14:58.263Z,938.35
2018-06-20T09:15:58.194Z,938.37
2018-06-20T09:16:58.163Z,938.38
2018-06-20T09:17:58.127Z,938.35
2018-06-20T09:18:58.050Z,938.41
2018-06-20T09:19:58.037Z,938.42
2018-06-20T09:20:57.999Z,938.42
2018-06-20T09:21:57.949Z,938.43
2018-06-20T09:22:57.881Z,938.45
2018-06-20T09:23:57.835Z,938.43
2018-06-20T09:24:57.801Z,938.41
2018-06-20T09:25:57.759Z,938.46
2018-06-20T09:26:57.696Z,938.48
2018-06-20T09:27:57.649Z,938.46
2018-06-20T09:28:57.624Z,938.45
2018-06-20T09:29:57.607Z,938.47
2018-06-20T09:30:57.492Z,938.49
2018-06-20T09:31:57.474Z,938.49
2018-06-20T09:32:57.423Z,938.46
2018-06-20T09:33:57.363Z,938.52
2018-06-20T09:34:57.328Z,938.45
2018-06-20T09:35:57.282Z,938.48
2018-06-20T09:36:57.243Z,938.52
2018-06-20T09:37:57.186Z,938.51
2018-06-20T09:38:57.123Z,938.51
2018-06-20T09:39:57.123Z,938.51
2018-06-20T09:40:57.063Z,938.57
2018-06-20T09:41:56.993Z,938.57
2018-06-20T09:42:56.951Z,938.52
2018-06-20T09:43:56.889Z,938.57
2018-06-20T09:44:56.843Z,938.59
2018-06-20T09:45:56.822Z,938.59
2018-06-20T09:46:56.753Z,938.60
2018-06-20T09:47:56.741Z,938.63
2018-06-20T09:48:56.676Z,938.62
2018-06-20T09:49:56.629Z,938.61
2018-06-20T09:50:56.578Z,938.67
2018-06-20T09:51:56.530Z,938.66
2018-06-20T09:52:56.487Z,938.66
2018-06-20T09:53:56.448Z,938.69
2018-06-20T09:54:56.388Z,938.73
2018-06-20T09:55:56.359Z,938.69
2018-06-20T09:56:56.318Z,938.73
2018-06-20T09:57:56.319Z,938.71
2018-06-20T09:58:56.228Z,938.73
2018-06-20T09:59:56.147Z,938.72
2018-06-20T10:00:56.109Z,938.72
2018-06-20T10:01:56.607Z,938.70
2018-06-20T10:02:56.042Z,938.74
2018-06-20T10:03:55.973Z,938.79
2018-06-20T10:04:55.942Z,938.77
2018-06-20T10:05:55.884Z,938.83
2018-06-20T10:06:55.829Z,938.87
2018-06-20T10:07:55.781Z,938.83
2018-06-20T10:08:55.749Z,938.81
2018-06-20T10:09:55.686Z,938.85
2018-06-20T10:10:55.642Z,938.83
2018-06-20T10:11:55.605Z,938.83
2018-06-20T10:12:55.544Z,938.85
2018-06-20T10:13:55.494Z,938.83
2018-06-20T10:14:55.455Z,938.83
2018-06-20T10:15:55.405Z,938.85
2018-06-20T10:16:55.375Z,938.88
2018-06-20T10:17:55.319Z,938.88
2018-06-20T10:18:55.268Z,938.89
2018-06-20T10:19:55.219Z,938.93
2018-06-20T10:20:55.173Z,938.89
2018-06-20T10:21:55.134Z,938.91
2018-06-20T10:22:55.069Z,938.91
2018-06-20T10:23:55.037Z,938.93
2018-06-20T10:24:54.987Z,938.95
2018-06-20T10:25:54.961Z,938.97
2018-06-20T10:26:54.908Z,938.96
2018-06-20T10:27:54.855Z,938.95
2018-06-20T10:28:54.815Z,939.19
2018-06-20T10:29:54.756Z,939.46
2018-06-20T10:30:54.698Z,939.51
2018-06-20T10:31:54.681Z,939.56
2018-06-20T10:32:54.605Z,939.61
2018-06-20T10:33:54.581Z,939.66
2018-06-20T10:34:54.542Z,939.73
2018-06-20T10:35:54.521Z,939.71
2018-06-20T10:36:54.460Z,939.69
2018-06-20T10:37:54.408Z,939.74
2018-06-20T10:38:54.353Z,939.77
2018-06-20T10:39:54.296Z,939.82
2018-06-20T10:40:54.274Z,939.82
2018-06-20T10:41:54.206Z,939.84
2018-06-20T10:42:54.190Z,939.85
2018-06-20T10:43:54.139Z,939.94
2018-06-20T10:44:54.652Z,939.90
2018-06-20T10:45:54.048Z,939.86
2018-06-20T10:46:54.013Z,939.91
2018-06-20T10:47:53.989Z,939.92
2018-06-20T10:48:53.957Z,939.87
2018-06-20T10:49:53.881Z,939.90
2018-06-20T10:50:53.848Z,939.91
2018-06-20T10:51:53.896Z,939.93
2018-06-20T10:52:53.757Z,939.94
2018-06-20T10:53:53.713Z,939.97
2018-06-20T10:54:53.664Z,939.98
2018-06-20T10:55:53.648Z,939.96
2018-06-20T10:56:53.601Z,939.96
2018-06-20T10:57:53.570Z,939.95
2018-06-20T10:58:53.505Z,939.93
2018-06-20T10:59:53.483Z,939.91
2018-06-20T11:00:53.428Z,939.94
2018-06-20T11:01:53.420Z,939.93
2018-06-20T11:02:53.357Z,939.96
2018-06-20T11:03:53.324Z,939.97
2018-06-20T11:04:53.290Z,939.95
2018-06-20T11:05:53.288Z,939.94
2018-06-20T11:06:53.217Z,939.91
2018-06-20T11:07:53.178Z,939.93
2018-06-20T11:08:53.133Z,939.96
2018-06-20T11:09:53.116Z,939.95
2018-06-20T11:10:53.061Z,940.01
2018-06-20T11:11:53.030Z,939.98
2018-06-20T11:12:52.981Z,940.00
2018-06-20T11:13:52.975Z,939.99
2018-06-20T11:14:52.916Z,940.00
2018-06-20T11:15:52.889Z,939.97
2018-06-20T11:16:52.853Z,939.96
2018-06-20T11:17:52.803Z,939.94
2018-06-20T11:18:52.792Z,939.88
2018-06-20T11:19:52.731Z,939.78
2018-06-20T11:20:52.718Z,939.57
2018-06-20T11:21:52.650Z,939.50
2018-06-20T11:22:52.633Z,939.50
2018-06-20T11:23:52.581Z,939.55
2018-06-20T11:24:52.539Z,939.51
2018-06-20T11:25:52.497Z,939.53
2018-06-20T11:26:52.504Z,939.47
2018-06-20T11:27:52.415Z,939.56
2018-06-20T11:28:52.395Z,939.57
2018-06-20T11:29:52.329Z,939.57
2018-06-20T11:30:52.322Z,939.59
2018-06-20T11:31:52.273Z,939.58
2018-06-20T11:32:52.206Z,939.60
2018-06-20T11:33:52.176Z,939.58
2018-06-20T11:34:52.120Z,939.64
2018-06-20T11:35:52.111Z,939.63
2018-06-20T11:36:52.050Z,939.57
2018-06-20T11:37:52.002Z,939.59
2018-06-20T11:38:51.976Z,939.62
2018-06-20T11:39:51.933Z,939.65
2018-06-20T11:40:51.891Z,939.64
2018-06-20T11:41:51.822Z,939.61
2018-06-20T11:42:51.776Z,939.62
2018-06-20T11:43:51.736Z,939.59
2018-06-20T11:44:51.733Z,939.66
2018-06-20T11:45:51.706Z,939.62
2018-06-20T11:46:51.647Z,939.69
2018-06-20T11:47:51.588Z,939.64
2018-06-20T11:48:51.550Z,939.72
2018-06-20T11:49:51.533Z,939.72
2018-06-20T11:50:51.482Z,939.69
2018-06-20T11:51:51.429Z,939.70
2018-06-20T11:52:51.390Z,939.68
2018-06-20T11:53:51.333Z,939.70
2018-06-20T11:54:51.260Z,939.70
2018-06-20T11:55:51.227Z,939.72
2018-06-20T11:56:51.212Z,939.68
2018-06-20T11:57:51.138Z,939.70
2018-06-20T11:58:51.104Z,939.74
2018-06-20T11:59:51.040Z,939.68
2018-06-20T12:00:51.038Z,939.72
2018-06-20T12:01:50.987Z,939.67
2018-06-20T12:02:50.950Z,939.67
2018-06-20T12:03:50.953Z,939.66
2018-06-20T12:04:50.844Z,939.65
2018-06-20T12:05:50.815Z,939.65
2018-06-20T12:06:50.746Z,939.67
2018-06-20T12:07:50.705Z,939.65
2018-06-20T12:08:50.657Z,939.67
2018-06-20T12:09:50.606Z,939.66
2018-06-20T12:10:50.576Z,939.65
2018-06-20T12:11:50.537Z,939.63
2018-06-20T12:12:50.468Z,939.68
2018-06-20T12:13:50.465Z,939.66
2018-06-20T12:14:50.380Z,939.68
2018-06-20T12:15:50.360Z,939.66
2018-06-20T12:16:50.312Z,939.69
2018-06-20T12:17:50.270Z,939.66
2018-06-20T12:18:50.217Z,939.66
2018-06-20T12:19:50.181Z,939.71
2018-06-20T12:20:50.113Z,939.69
2018-06-20T12:21:50.108Z,939.63
2018-06-20T12:22:50.037Z,939.62
2018-06-20T12:23:49.993Z,939.70
2018-06-20T12:24:49.941Z,939.71
2018-06-20T12:25:49.919Z,939.67
2018-06-20T12:26:49.849Z,939.69
2018-06-20T12:27:49.827Z,939.72
2018-06-20T12:28:49.788Z,939.71
2018-06-20T12:29:49.737Z,939.65
2018-06-20T12:30:49.711Z,939.66
2018-06-20T12:31:49.633Z,939.63
2018-06-20T12:32:49.610Z,939.64
2018-06-20T12:33:49.553Z,939.65